Time;durP1;ratioP1;P1;durP2;ratioP2;P2;SDS_P1;SDS_P2;PMS_P1;PMS_P2;Temp;Humidity;BMP_temperature;BMP_pressure;BME280_temperature;BME280_humidity;BME280_pressure;Samples;Min_cycle;Max_cycle;Signal;HPM_P1;HPM_P2
2022/10/08 00:00:44;;;;;;;23.50;21.13;;;;;;;13.11;100.00;101147.81;5053968;28;20489;-44
2022/10/08 00:03:12;;;;;;;20.97;19.77;;;;;;;13.13;100.00;101147.63;5053791;28;20944;-42
2022/10/08 00:05:42;;;;;;;21.03;19.73;;;;;;;13.17;100.00;101148.91;5054134;28;20467;-43
2022/10/08 00:08:10;;;;;;;20.37;19.27;;;;;;;13.18;100.00;101146.00;5054008;28;20956;-44
2022/10/08 00:10:37;;;;;;;19.87;18.60;;;;;;;13.22;100.00;101141.06;5054048;28;20435;-44
2022/10/08 00:13:05;;;;;;;19.50;18.27;;;;;;;13.23;100.00;101142.72;5053190;28;20871;-42
2022/10/08 00:15:36;;;;;;;20.27;18.77;;;;;;;13.28;100.00;101148.28;5053780;28;20982;-43
2022/10/08 00:18:04;;;;;;;19.10;17.93;;;;;;;13.30;100.00;101133.66;5054095;28;20435;-44
2022/10/08 00:20:32;;;;;;;18.73;17.53;;;;;;;13.31;100.00;101139.84;5053645;28;20435;-45
2022/10/08 00:23:01;;;;;;;19.67;18.40;;;;;;;13.35;100.00;101149.09;5052988;28;20463;-42
2022/10/08 00:25:29;;;;;;;18.97;17.33;;;;;;;13.39;100.00;101145.00;5053707;28;20859;-43
2022/10/08 00:27:56;;;;;;;18.33;17.10;;;;;;;13.39;100.00;101144.16;5053404;28;20431;-44
2022/10/08 00:30:24;;;;;;;19.17;17.90;;;;;;;13.40;100.00;101143.97;5053779;28;20439;-45
2022/10/08 00:32:51;;;;;;;19.47;17.87;;;;;;;13.41;100.00;101150.94;5052966;28;20463;-44
2022/10/08 00:35:25;;;;;;;19.10;17.70;;;;;;;13.41;100.00;101148.28;5053636;28;20469;-44
2022/10/08 00:37:53;;;;;;;18.20;16.90;;;;;;;13.39;100.00;101147.66;5053334;28;20439;-43
2022/10/08 00:40:21;;;;;;;18.97;17.57;;;;;;;13.40;100.00;101154.69;5053318;28;20431;-44
2022/10/08 00:42:49;;;;;;;18.10;17.03;;;;;;;13.41;100.00;101156.31;5052563;28;20467;-43
2022/10/08 00:45:17;;;;;;;19.47;17.77;;;;;;;13.39;100.00;101149.50;5053390;28;20431;-43
2022/10/08 00:47:47;;;;;;;20.60;18.70;;;;;;;13.34;100.00;101152.00;5053244;28;20484;-44
2022/10/08 00:50:22;;;;;;;20.63;18.63;;;;;;;13.25;100.00;101160.22;5053307;28;20427;-43
2022/10/08 00:52:53;;;;;;;21.23;19.50;;;;;;;13.21;100.00;101164.34;5052224;28;20520;-43
2022/10/08 00:55:25;;;;;;;22.83;20.83;;;;;;;13.12;100.00;101143.31;5053350;28;20489;-43
2022/10/08 00:57:57;;;;;;;23.30;21.53;;;;;;;13.08;100.00;101142.06;5052976;28;20940;-42
2022/10/08 01:00:25;;;;;;;23.60;21.90;;;;;;;13.01;100.00;101144.69;5052949;28;20461;-42
2022/10/08 01:02:53;;;;;;;25.80;23.67;;;;;;;12.95;100.00;101145.50;5052219;28;20872;-44
2022/10/08 01:05:27;;;;;;;27.70;25.10;;;;;;;12.93;100.00;101144.06;5052816;28;20436;-43
2022/10/08 01:08:04;;;;;;;27.10;25.53;;;;;;;12.91;100.00;101132.72;5052790;28;20480;-42
2022/10/08 01:10:40;;;;;;;28.40;26.60;;;;;;;12.86;100.00;101141.38;5052923;28;20473;-43
2022/10/08 01:13:17;;;;;;;29.33;27.40;;;;;;;12.80;100.00;101131.47;5052210;28;20467;-44
2022/10/08 01:15:51;;;;;;;31.27;29.23;;;;;;;12.82;100.00;101133.94;5052639;28;20497;-44
2022/10/08 01:18:26;;;;;;;32.47;29.80;;;;;;;12.82;100.00;101139.28;5052602;28;20928;-46
2022/10/08 01:21:04;;;;;;;33.30;31.10;;;;;;;12.80;100.00;101139.50;5052300;28;20480;-43
2022/10/08 01:24:05;;;;;;;34.13;31.93;;;;;;;12.79;100.00;101129.81;5052099;28;20525;-42
2022/10/08 01:26:52;;;;;;;32.97;31.00;;;;;;;12.78;100.00;101128.97;5050272;28;20482;-43
2022/10/08 01:29:27;;;;;;;35.10;32.80;;;;;;;12.76;100.00;101139.06;5052670;28;20485;-45
2022/10/08 01:32:02;;;;;;;33.47;31.10;;;;;;;12.77;100.00;101132.69;5052316;28;20516;-43
2022/10/08 01:34:34;;;;;;;35.43;32.90;;;;;;;12.76;100.00;101131.03;5051861;28;20459;-44
2022/10/08 01:37:04;;;;;;;35.57;33.07;;;;;;;12.76;100.00;101141.75;5052344;28;20477;-43
2022/10/08 01:39:35;;;;;;;35.40;32.60;;;;;;;12.74;100.00;101129.59;5051956;28;20442;-42
2022/10/08 01:42:07;;;;;;;35.73;32.73;;;;;;;12.75;100.00;101129.38;5052030;28;20447;-42
2022/10/08 01:44:40;;;;;;;34.87;32.53;;;;;;;12.74;100.00;101127.75;5051794;28;20520;-43
2022/10/08 01:47:13;;;;;;;36.33;33.87;;;;;;;12.72;100.00;101134.34;5051941;28;20525;-45
2022/10/08 01:49:45;;;;;;;36.23;33.40;;;;;;;12.73;100.00;101135.97;5052397;28;20431;-43
2022/10/08 01:52:19;;;;;;;35.60;32.80;;;;;;;12.74;100.00;101132.28;5051940;28;20501;-42
2022/10/08 01:54:51;;;;;;;37.10;34.40;;;;;;;12.68;100.00;101131.22;5051705;28;20857;-44
2022/10/08 01:57:18;;;;;;;37.57;35.07;;;;;;;12.69;100.00;101124.03;5051907;28;20424;-43
2022/10/08 01:59:54;;;;;;;39.67;37.03;;;;;;;12.65;100.00;101136.16;5052159;28;20435;-45
2022/10/08 02:02:23;;;;;;;35.50;33.23;;;;;;;12.62;100.00;101132.03;5051646;28;20875;-44
2022/10/08 02:04:54;;;;;;;36.33;33.83;;;;;;;12.61;100.00;101132.22;5051734;28;20447;-42
2022/10/08 02:07:24;;;;;;;36.90;33.83;;;;;;;12.61;100.00;101127.69;5051886;28;20475;-44
2022/10/08 02:10:00;;;;;;;37.33;34.63;;;;;;;12.60;100.00;101126.03;5051816;28;20424;-43
2022/10/08 02:12:28;;;;;;;37.83;35.00;;;;;;;12.59;100.00;101120.91;5051288;28;20455;-42
2022/10/08 02:14:58;;;;;;;39.13;34.77;;;;;;;12.54;100.00;101099.28;5051732;28;20434;-42
2022/10/08 02:17:35;;;;;;;39.87;36.07;;;;;;;12.53;100.00;101084.25;5054642;22;20495;-48
2022/10/08 02:20:11;;;;;;;38.90;35.83;;;;;;;12.52;100.00;101066.53;5017129;28;20429;-47
2022/10/08 02:22:47;;;;;;;38.43;34.60;;;;;;;12.47;100.00;101082.38;5011201;28;20417;-48
2022/10/08 02:25:23;;;;;;;36.13;33.63;;;;;;;12.43;100.00;101089.13;5012198;28;20620;-48
2022/10/08 02:27:58;;;;;;;38.03;35.13;;;;;;;12.40;100.00;101084.19;5012020;28;20477;-47
2022/10/08 02:30:35;;;;;;;36.27;33.60;;;;;;;12.39;100.00;101096.75;5011969;28;20528;-50
2022/10/08 02:33:07;;;;;;;36.70;33.97;;;;;;;12.36;100.00;101105.19;5011148;28;20468;-50
2022/10/08 02:35:40;;;;;;;37.37;34.63;;;;;;;12.33;100.00;101092.19;5012107;28;20429;-48
2022/10/08 02:38:13;;;;;;;37.03;34.40;;;;;;;12.32;100.00;101092.38;5012004;28;20528;-47
2022/10/08 02:40:44;;;;;;;37.83;34.90;;;;;;;12.32;100.00;101095.88;5012002;28;20854;-48
2022/10/08 02:43:18;;;;;;;38.53;35.60;;;;;;;12.36;100.00;101107.03;5011097;28;20465;-47
2022/10/08 02:45:52;;;;;;;38.37;35.23;;;;;;;12.36;100.00;101107.84;5012038;28;20472;-48
2022/10/08 02:48:26;;;;;;;37.33;34.23;;;;;;;12.36;100.00;101113.19;5011820;28;20483;-46
2022/10/08 02:50:57;;;;;;;36.90;34.20;;;;;;;12.39;100.00;101104.78;5013306;28;20487;-49
2022/10/08 02:53:25;;;;;;;36.13;33.67;;;;;;;12.40;100.00;101084.19;5015288;28;20858;-48
2022/10/08 02:56:05;;;;;;;35.97;32.80;;;;;;;12.41;100.00;101099.22;5015646;28;20436;-48
2022/10/08 02:58:33;;;;;;;38.17;34.93;;;;;;;12.41;100.00;101085.84;5015792;28;20436;-50
2022/10/08 03:01:09;;;;;;;37.00;34.00;;;;;;;12.43;100.00;101092.63;5015452;28;20429;-49
2022/10/08 03:03:43;;;;;;;38.33;35.67;;;;;;;12.42;100.00;101080.31;5015092;28;20464;-48
2022/10/08 03:06:12;;;;;;;37.47;34.40;;;;;;;12.44;100.00;101083.59;5015259;28;20432;-47
2022/10/08 03:08:46;;;;;;;36.53;33.70;;;;;;;12.46;100.00;101089.56;5015543;28;20476;-50
2022/10/08 03:11:14;;;;;;;37.03;34.33;;;;;;;12.48;100.00;101065.31;5015313;28;20783;-47
2022/10/08 03:13:46;;;;;;;38.40;35.17;;;;;;;12.48;100.00;101059.94;5014865;28;20544;-53
2022/10/08 03:16:19;;;;;;;38.37;35.60;;;;;;;12.49;100.00;101070.44;5015122;28;20460;-49
2022/10/08 03:18:47;;;;;;;38.13;35.23;;;;;;;12.52;100.00;101085.25;5015136;28;20480;-50
2022/10/08 03:21:15;;;;;;;36.47;33.57;;;;;;;12.53;100.00;101097.63;5011578;28;20487;-54
2022/10/08 03:23:43;;;;;;;38.87;35.50;;;;;;;12.57;100.00;101090.84;5014524;28;20496;-49
2022/10/08 03:26:11;;;;;;;36.97;33.90;;;;;;;12.57;100.00;101088.97;5015091;28;20486;-53
2022/10/08 03:28:38;;;;;;;37.83;34.27;;;;;;;12.58;100.00;101101.34;5014943;28;20522;-51
2022/10/08 03:31:06;;;;;;;37.40;33.60;;;;;;;12.60;100.00;101101.16;5014745;28;20437;-52
2022/10/08 03:33:35;;;;;;;35.73;32.77;;;;;;;12.60;100.00;101101.16;5014532;28;20475;-53
2022/10/08 03:36:03;;;;;;;37.20;34.00;;;;;;;12.58;100.00;101104.00;5014780;28;20444;-50
2022/10/08 03:38:33;;;;;;;37.60;34.70;;;;;;;12.59;100.00;101124.41;5015048;28;20432;-50
2022/10/08 03:41:01;;;;;;;38.97;35.37;;;;;;;12.60;100.00;101117.22;5014710;28;20425;-55
2022/10/08 03:43:31;;;;;;;36.63;33.43;;;;;;;12.61;100.00;101126.84;5014300;28;20465;-51
2022/10/08 03:45:59;;;;;;;38.73;34.57;;;;;;;12.60;100.00;101118.00;5014681;28;20417;-50
2022/10/08 03:48:27;;;;;;;37.03;33.53;;;;;;;12.60;100.00;101123.34;5014623;28;20520;-50
2022/10/08 03:50:58;;;;;;;38.10;34.57;;;;;;;12.62;100.00;101117.81;5014581;28;20835;-53
2022/10/08 03:53:28;;;;;;;37.77;34.50;;;;;;;12.63;100.00;101114.94;5014138;28;20473;-53
2022/10/08 03:55:56;;;;;;;38.00;34.20;;;;;;;12.63;100.00;101114.94;5014532;28;20942;-49
2022/10/08 03:58:23;;;;;;;37.33;34.10;;;;;;;12.64;100.00;101116.59;5014254;28;20460;-50
2022/10/08 04:01:02;;;;;;;38.03;34.37;;;;;;;12.66;100.00;101111.84;5013954;28;20564;-53
2022/10/08 04:03:30;;;;;;;37.10;33.30;;;;;;;12.66;100.00;101098.47;5013992;28;20464;-49
2022/10/08 04:06:00;;;;;;;37.87;34.20;;;;;;;12.66;100.00;101119.88;5014406;28;20479;-47
2022/10/08 04:08:28;;;;;;;36.73;33.90;;;;;;;12.66;100.00;101114.53;5014134;28;20477;-51
2022/10/08 04:10:55;;;;;;;37.17;33.90;;;;;;;12.66;100.00;101119.06;5014003;28;20490;-48
2022/10/08 04:13:23;;;;;;;36.00;32.80;;;;;;;12.67;100.00;101110.84;5013687;28;20936;-48
2022/10/08 04:15:50;;;;;;;37.77;34.43;;;;;;;12.66;100.00;101103.81;5014372;28;20486;-50
2022/10/08 04:18:18;;;;;;;36.03;33.33;;;;;;;12.67;100.00;101116.19;5013941;28;20547;-47
2022/10/08 04:20:46;;;;;;;38.43;34.93;;;;;;;12.65;100.00;101107.53;5013815;28;20460;-49
2022/10/08 04:23:15;;;;;;;36.77;33.67;;;;;;;12.62;100.00;101121.31;5013383;28;20465;-49
2022/10/08 04:25:49;;;;;;;37.83;34.60;;;;;;;12.60;100.00;101107.31;5013968;28;20437;-48
2022/10/08 04:28:17;;;;;;;35.77;32.80;;;;;;;12.58;100.00;101108.53;5013975;28;20476;-54
2022/10/08 04:30:54;;;;;;;36.77;33.20;;;;;;;12.54;100.00;101107.31;5013700;28;20946;-51
2022/10/08 04:33:22;;;;;;;37.70;34.00;;;;;;;12.52;100.00;101117.34;5013396;28;20493;-50
2022/10/08 04:35:50;;;;;;;37.33;33.90;;;;;;;12.49;100.00;101123.94;5013712;28;20764;-53
2022/10/08 04:38:23;;;;;;;34.37;32.00;;;;;;;12.44;100.00;101123.72;5013773;28;20545;-51
2022/10/08 04:41:01;;;;;;;30.90;28.57;;;;;;;12.35;100.00;101110.72;5013716;28;20496;-52
2022/10/08 04:43:29;;;;;;;30.70;28.43;;;;;;;12.25;100.00;101112.91;5013233;28;20538;-53
2022/10/08 04:45:56;;;;;;;30.00;28.37;;;;;;;12.18;100.00;101123.59;5013548;28;20429;-53
2022/10/08 04:48:24;;;;;;;31.93;29.77;;;;;;;12.15;100.00;101124.00;5013241;28;20476;-54
2022/10/08 04:50:55;;;;;;;30.10;27.97;;;;;;;12.13;100.00;101131.38;5013282;28;20949;-46
2022/10/08 04:53:25;;;;;;;31.90;29.67;;;;;;;12.14;100.00;101135.69;5012964;28;20519;-46
2022/10/08 04:55:53;;;;;;;31.13;29.03;;;;;;;12.15;100.00;101129.34;5013423;28;20433;-45
2022/10/08 04:58:25;;;;;;;31.80;30.03;;;;;;;12.12;100.00;101130.56;5013295;28;20518;-51
2022/10/08 05:00:53;;;;;;;32.70;30.10;;;;;;;12.09;100.00;101140.81;5013067;28;20429;-45
2022/10/08 05:03:20;;;;;;;32.13;29.83;;;;;;;12.03;100.00;101139.75;5012854;28;20638;-47
2022/10/08 05:05:48;;;;;;;30.83;29.20;;;;;;;12.00;100.00;101140.16;5013409;28;20799;-48
2022/10/08 05:08:16;;;;;;;29.90;28.20;;;;;;;11.95;100.00;101139.91;5013164;28;20477;-47
2022/10/08 05:10:49;;;;;;;30.40;28.70;;;;;;;11.89;100.00;101140.69;5012956;28;20445;-53
2022/10/08 05:13:16;;;;;;;31.07;29.13;;;;;;;11.83;100.00;101149.47;5011677;28;20461;-47
2022/10/08 05:15:44;;;;;;;32.33;30.10;;;;;;;11.78;100.00;101145.75;5012110;28;20822;-49
2022/10/08 05:18:11;;;;;;;32.00;30.10;;;;;;;11.73;100.00;101156.19;5012731;28;20985;-52
2022/10/08 05:20:39;;;;;;;32.20;30.50;;;;;;;11.67;100.00;101155.09;5009786;28;20437;-46
2022/10/08 05:23:07;;;;;;;33.40;31.20;;;;;;;11.60;100.00;101151.53;5012140;28;20548;-47
2022/10/08 05:25:35;;;;;;;32.70;30.70;;;;;;;11.55;100.00;101151.28;5012803;28;20846;-45
2022/10/08 05:28:04;;;;;;;33.23;31.30;;;;;;;11.50;100.00;101156.38;5011954;28;20461;-45
2022/10/08 05:30:32;;;;;;;32.37;29.80;;;;;;;11.46;100.00;101150.59;5010344;28;20475;-46
2022/10/08 05:33:00;;;;;;;32.60;29.90;;;;;;;11.44;100.00;101155.28;5008342;28;20503;-55
2022/10/08 05:35:27;;;;;;;31.77;29.50;;;;;;;11.42;100.00;101173.38;5012619;28;20495;-44
2022/10/08 05:37:55;;;;;;;31.03;29.03;;;;;;;11.41;100.00;101166.34;5007133;28;20457;-47
2022/10/08 05:40:23;;;;;;;31.33;29.20;;;;;;;11.41;100.00;101170.91;5012188;28;20430;-47
2022/10/08 05:42:50;;;;;;;31.73;28.97;;;;;;;11.38;100.00;101172.06;5012196;28;20457;-49
2022/10/08 05:45:19;;;;;;;31.53;29.20;;;;;;;11.37;100.00;101181.13;5012026;28;20495;-53
2022/10/08 05:47:48;;;;;;;30.47;28.23;;;;;;;11.36;100.00;101175.97;5012328;28;20522;-51
2022/10/08 05:50:16;;;;;;;30.10;27.83;;;;;;;11.35;100.00;101177.81;5012243;28;20993;-45
2022/10/08 05:52:43;;;;;;;31.67;28.80;;;;;;;11.33;100.00;101168.34;5011339;28;20504;-52
2022/10/08 05:55:11;;;;;;;29.47;27.67;;;;;;;11.32;100.00;101174.72;5012513;28;20846;-45
2022/10/08 05:57:39;;;;;;;30.07;27.80;;;;;;;11.31;100.00;101178.38;5012293;28;20449;-49
2022/10/08 06:00:08;;;;;;;30.60;27.90;;;;;;;11.30;100.00;101190.06;5011720;28;21003;-51
2022/10/08 06:02:37;;;;;;;30.07;27.47;;;;;;;11.30;100.00;101198.09;5011036;28;20445;-50
2022/10/08 06:05:05;;;;;;;29.83;27.53;;;;;;;11.29;100.00;101189.25;5012231;28;20577;-47
2022/10/08 06:07:33;;;;;;;29.23;26.80;;;;;;;11.30;100.00;101198.91;5011843;28;20453;-50
2022/10/08 06:10:00;;;;;;;29.60;27.60;;;;;;;11.30;100.00;101203.44;5012317;28;20574;-47
2022/10/08 06:12:28;;;;;;;29.87;27.37;;;;;;;11.31;100.00;101210.44;5011362;28;20830;-45
2022/10/08 06:14:55;;;;;;;29.43;27.30;;;;;;;11.32;100.00;101210.22;5012188;28;20430;-49
2022/10/08 06:17:23;;;;;;;31.13;28.70;;;;;;;11.35;100.00;101217.06;5011505;28;20519;-49
2022/10/08 06:19:52;;;;;;;31.90;28.77;;;;;;;11.39;100.00;101215.63;5008803;28;20858;-49
2022/10/08 06:22:19;;;;;;;30.43;27.93;;;;;;;11.45;100.00;101221.06;5011417;28;20432;-47
2022/10/08 06:24:47;;;;;;;30.40;27.97;;;;;;;11.53;100.00;101220.91;4991824;28;20584;-50
2022/10/08 06:27:15;;;;;;;30.20;28.10;;;;;;;11.64;100.00;101225.75;4992373;28;20508;-44
2022/10/08 06:29:42;;;;;;;31.70;29.03;;;;;;;11.78;100.00;101231.25;4992301;28;20481;-46
2022/10/08 06:32:10;;;;;;;30.07;27.70;;;;;;;11.94;100.00;101234.47;4992124;28;20438;-46
2022/10/08 06:34:37;;;;;;;30.30;28.37;;;;;;;12.12;100.00;101229.47;4991556;28;20524;-48
2022/10/08 06:37:06;;;;;;;30.60;28.47;;;;;;;12.27;100.00;101236.56;4992351;28;20532;-50
2022/10/08 06:39:34;;;;;;;30.53;28.40;;;;;;;12.32;100.00;101236.78;4992129;28;20442;-47
2022/10/08 06:42:01;;;;;;;29.40;27.40;;;;;;;12.38;100.00;101244.88;4992056;28;20438;-51
2022/10/08 06:44:29;;;;;;;30.37;27.63;;;;;;;12.42;100.00;101246.13;4991469;28;20469;-49
2022/10/08 06:46:57;;;;;;;29.53;27.30;;;;;;;12.49;100.00;101249.66;4991788;28;20995;-48
2022/10/08 06:49:25;;;;;;;30.27;28.07;;;;;;;12.56;100.00;101258.56;4992305;28;20488;-46
2022/10/08 06:51:53;;;;;;;28.90;26.90;;;;;;;12.58;100.00;101253.84;4991678;28;20434;-50
2022/10/08 06:54:24;;;;;;;29.07;26.97;;;;;;;12.61;100.00;101250.75;4990761;28;20520;-49
2022/10/08 06:56:52;;;;;;;30.53;28.40;;;;;;;12.57;100.00;101249.50;4992135;28;20458;-50
2022/10/08 06:59:20;;;;;;;30.70;28.67;;;;;;;12.52;100.00;101253.78;4991530;28;20777;-47
2022/10/08 07:01:47;;;;;;;31.27;29.30;;;;;;;12.45;100.00;101260.97;4991664;28;20442;-48
2022/10/08 07:04:15;;;;;;;30.67;28.53;;;;;;;12.44;100.00;101262.81;4991516;28;20476;-48
2022/10/08 07:06:43;;;;;;;31.63;28.93;;;;;;;12.51;100.00;101265.53;4992004;28;20816;-48
2022/10/08 07:09:12;;;;;;;30.23;28.13;;;;;;;12.71;100.00;101261.94;4991726;28;20995;-50
2022/10/08 07:11:41;;;;;;;31.80;29.40;;;;;;;12.96;100.00;101264.13;4991735;28;20434;-47
2022/10/08 07:14:08;;;;;;;32.03;29.60;;;;;;;13.05;100.00;101270.97;4991080;28;20506;-52
2022/10/08 07:16:36;;;;;;;32.17;29.83;;;;;;;13.09;100.00;101274.91;4991899;28;20515;-45
2022/10/08 07:19:03;;;;;;;30.80;28.20;;;;;;;13.15;100.00;101282.97;4992658;28;20528;-47
2022/10/08 07:21:31;;;;;;;31.33;29.07;;;;;;;13.17;100.00;101288.16;5011115;28;20433;-53
2022/10/08 07:24:00;;;;;;;31.03;28.93;;;;;;;13.23;100.00;101288.16;5010426;28;20515;-52
2022/10/08 07:26:31;;;;;;;31.13;28.93;;;;;;;13.22;100.00;101291.03;5011172;28;20453;-45
2022/10/08 07:29:02;;;;;;;29.73;27.43;;;;;;;13.25;100.00;101301.34;5011592;28;20452;-46
2022/10/08 07:31:31;;;;;;;31.93;29.57;;;;;;;13.36;100.00;101310.66;5011353;28;20495;-47
2022/10/08 07:34:00;;;;;;;31.67;29.50;;;;;;;13.53;100.00;101320.00;5010975;28;20488;-50
2022/10/08 07:36:29;;;;;;;33.00;30.80;;;;;;;13.71;100.00;101323.75;5012175;28;20815;-48
2022/10/08 07:38:58;;;;;;;35.30;32.40;;;;;;;13.70;100.00;101323.97;5014857;28;20575;-44
2022/10/08 07:41:25;;;;;;;32.57;30.10;;;;;;;13.61;100.00;101317.13;5014627;28;20472;-49
2022/10/08 07:43:57;;;;;;;33.03;30.73;;;;;;;13.55;100.00;101313.41;5014293;28;20469;-53
2022/10/08 07:46:26;;;;;;;34.00;32.10;;;;;;;13.47;100.00;101304.72;5014646;28;20457;-47
2022/10/08 07:48:55;;;;;;;31.73;29.50;;;;;;;13.47;100.00;101284.09;5014715;28;20437;-46
2022/10/08 07:51:23;;;;;;;32.07;29.87;;;;;;;13.52;100.00;101272.78;5014322;28;20914;-47
2022/10/08 07:53:50;;;;;;;33.17;31.27;;;;;;;13.58;100.00;101280.84;5013776;28;20519;-46
2022/10/08 07:56:22;;;;;;;31.27;29.47;;;;;;;13.68;100.00;101280.44;5014646;28;20441;-48
2022/10/08 07:58:50;;;;;;;31.30;29.70;;;;;;;13.72;100.00;101301.28;5016338;28;20485;-50
2022/10/08 08:01:20;;;;;;;29.73;27.43;;;;;;;13.65;100.00;101300.44;5027023;28;20487;-50
2022/10/08 08:03:54;;;;;;;31.97;30.10;;;;;;;13.66;100.00;101312.81;5011516;28;20496;-50
2022/10/08 08:06:22;;;;;;;31.90;29.77;;;;;;;13.67;100.00;101314.47;5013045;28;20438;-44
2022/10/08 08:08:51;;;;;;;32.10;30.17;;;;;;;13.62;100.00;101324.16;5013921;28;20457;-48
2022/10/08 08:11:22;;;;;;;31.90;30.40;;;;;;;13.59;100.00;101329.91;5014337;28;20477;-49
2022/10/08 08:13:50;;;;;;;31.70;29.93;;;;;;;13.54;100.00;101330.50;5021714;28;20464;-47
2022/10/08 08:16:19;;;;;;;32.40;30.57;;;;;;;13.46;100.00;101344.09;5013429;28;20456;-45
2022/10/08 08:18:49;;;;;;;31.83;29.80;;;;;;;13.42;100.00;101342.81;5014081;28;20460;-45
2022/10/08 08:21:20;;;;;;;30.70;29.10;;;;;;;13.42;100.00;101350.03;5013693;28;20483;-45
2022/10/08 08:23:50;;;;;;;32.43;30.70;;;;;;;13.40;100.00;101357.44;5011277;28;21013;-48
2022/10/08 08:26:19;;;;;;;31.03;29.63;;;;;;;13.40;100.00;101357.44;5009434;28;20503;-44
2022/10/08 08:28:51;;;;;;;33.70;32.10;;;;;;;13.40;100.00;101362.81;5014200;28;20850;-45
2022/10/08 08:31:21;;;;;;;31.80;30.07;;;;;;;13.42;100.00;101358.91;5014637;28;20527;-50
2022/10/08 08:33:50;;;;;;;32.30;30.40;;;;;;;13.42;100.00;101374.16;5011765;28;20547;-49
2022/10/08 08:36:23;;;;;;;32.27;30.77;;;;;;;13.37;100.00;101366.72;5013255;28;20491;-46
2022/10/08 08:38:51;;;;;;;31.87;30.17;;;;;;;13.27;100.00;101371.59;5013183;28;20487;-51
2022/10/08 08:41:38;;;;;;;32.20;30.40;;;;;;;13.34;100.00;101379.69;5019573;28;20426;-44
2022/10/08 08:44:10;;;;;;;30.37;28.87;;;;;;;13.71;100.00;101371.97;5014490;28;21265;-45
2022/10/08 08:46:44;;;;;;;31.83;30.00;;;;;;;14.13;100.00;101372.69;5013071;28;20480;-48
2022/10/08 08:49:16;;;;;;;31.33;29.83;;;;;;;14.53;100.00;101382.47;5016714;28;20467;-47
2022/10/08 08:51:45;;;;;;;31.90;30.20;;;;;;;14.87;100.00;101378.72;5020940;28;20460;-47
2022/10/08 08:54:13;;;;;;;34.07;32.10;;;;;;;15.13;100.00;101386.72;5015641;28;20464;-50
2022/10/08 08:56:41;;;;;;;34.40;32.27;;;;;;;14.95;100.00;101395.44;5027585;28;20525;-48
2022/10/08 08:59:23;;;;;;;33.33;31.80;;;;;;;15.12;100.00;101389.59;5027058;28;20839;-48
2022/10/08 09:01:53;;;;;;;33.93;31.70;;;;;;;15.54;100.00;101390.94;5013237;28;20492;-45
2022/10/08 09:04:24;;;;;;;33.50;31.60;;;;;;;15.91;100.00;101392.84;5028966;28;20472;-47
2022/10/08 09:06:56;;;;;;;33.40;31.60;;;;;;;16.03;100.00;101391.13;5027057;28;20448;-44
2022/10/08 09:09:27;;;;;;;33.60;31.87;;;;;;;15.99;97.14;101381.81;5026241;28;21035;-52
2022/10/08 09:11:55;;;;;;;32.63;30.93;;;;;;;15.98;97.01;101386.38;5030009;28;20469;-45
2022/10/08 09:14:34;;;;;;;34.10;32.20;;;;;;;15.90;96.15;101386.63;5005578;28;20473;-44
2022/10/08 09:17:13;;;;;;;34.37;32.77;;;;;;;15.97;97.16;101394.66;5059121;22;20909;-42
2022/10/08 09:19:41;;;;;;;32.80;31.03;;;;;;;15.90;96.56;101400.09;5089189;28;20425;-42
2022/10/08 09:22:21;;;;;;;30.93;29.43;;;;;;;15.96;99.11;101398.38;5084950;28;20480;-42
2022/10/08 09:24:50;;;;;;;31.30;29.83;;;;;;;16.08;99.05;101398.53;5070258;28;20914;-43
2022/10/08 09:27:18;;;;;;;33.20;31.40;;;;;;;16.03;97.31;101400.03;5072138;28;21424;-43
2022/10/08 09:29:46;;;;;;;34.07;32.27;;;;;;;16.12;98.05;101410.50;5071359;28;20442;-43
2022/10/08 09:32:16;;;;;;;31.47;30.07;;;;;;;16.14;96.88;101411.13;5071827;28;20882;-44
2022/10/08 09:34:47;;;;;;;34.03;32.03;;;;;;;16.13;96.79;101412.19;5071714;28;20520;-42
2022/10/08 09:37:23;;;;;;;33.90;31.03;;;;;;;16.19;96.98;101411.31;5071996;28;20878;-43
2022/10/08 09:40:20;;;;;;;30.70;29.03;;;;;;;16.43;97.80;101399.72;5072318;28;20483;-42
2022/10/08 09:43:12;;;;;;;30.63;28.83;;;;;;;16.52;95.58;101407.31;5063508;28;20454;-42
2022/10/08 09:45:43;;;;;;;31.33;29.00;;;;;;;16.66;93.71;101402.69;5067831;28;20426;-42
2022/10/08 09:48:19;;;;;;;32.47;30.07;;;;;;;16.65;91.81;101403.72;5071724;28;20460;-44
2022/10/08 09:50:51;;;;;;;31.50;29.60;;;;;;;16.78;90.02;101410.88;5071885;28;20462;-43
2022/10/08 09:53:22;;;;;;;31.00;29.20;;;;;;;17.01;90.54;101411.88;5071317;28;20462;-43
2022/10/08 09:55:55;;;;;;;31.37;29.80;;;;;;;17.49;93.54;101408.47;5071468;28;20491;-45
2022/10/08 09:58:23;;;;;;;30.87;29.23;;;;;;;17.79;89.89;101409.38;5071508;28;20438;-43
2022/10/08 10:01:00;;;;;;;30.60;28.50;;;;;;;17.86;85.91;101410.06;5070848;28;20426;-43
2022/10/08 10:03:28;;;;;;;30.20;28.60;;;;;;;17.79;84.66;101412.06;5071359;28;20453;-47
2022/10/08 10:05:58;;;;;;;27.57;25.97;;;;;;;17.53;81.44;101405.06;5071600;28;20472;-45
2022/10/08 10:08:50;;;;;;;26.60;25.40;;;;;;;17.42;80.09;101407.72;5070061;28;20491;-44
2022/10/08 10:11:24;;;;;;;26.07;24.60;;;;;;;17.32;82.17;101418.22;5069722;28;20461;-43
2022/10/08 10:13:51;;;;;;;24.93;23.20;;;;;;;17.13;81.32;101412.81;5070842;28;20531;-45
2022/10/08 10:16:25;;;;;;;22.13;20.83;;;;;;;16.76;79.11;101431.78;5071480;28;20454;-48
2022/10/08 10:18:58;;;;;;;22.60;21.10;;;;;;;16.11;79.99;101430.38;5070971;28;20434;-43
2022/10/08 10:21:34;;;;;;;18.57;17.27;;;;;;;15.56;81.56;101431.91;5068550;28;20818;-43
2022/10/08 10:24:19;;;;;;;15.60;14.73;;;;;;;15.17;83.37;101440.88;5062345;28;21039;-44
2022/10/08 10:26:50;;;;;;;15.97;15.07;;;;;;;14.83;86.05;101445.44;5071539;28;20450;-45
2022/10/08 10:29:21;;;;;;;16.07;15.13;;;;;;;14.74;88.90;101446.69;5071516;28;20445;-42
2022/10/08 10:31:54;;;;;;;18.07;16.57;;;;;;;14.87;92.99;101451.22;5071027;28;20473;-43
2022/10/08 10:34:25;;;;;;;18.03;16.80;;;;;;;14.76;93.68;101446.47;5070451;28;20459;-43
2022/10/08 10:36:57;;;;;;;18.03;16.73;;;;;;;14.74;95.64;101448.53;5071202;28;21024;-46
2022/10/08 10:39:36;;;;;;;17.63;16.70;;;;;;;14.92;97.41;101438.00;5070420;28;20492;-42
2022/10/08 10:42:14;;;;;;;20.60;18.67;;;;;;;15.22;98.63;101451.78;5070821;28;20484;-43
2022/10/08 10:44:51;;;;;;;20.53;18.87;;;;;;;15.19;94.13;101441.47;5059727;28;20528;-42
2022/10/08 10:47:21;;;;;;;18.43;16.57;;;;;;;15.26;93.13;101431.53;5070964;28;20818;-43
2022/10/08 10:49:50;;;;;;;15.40;14.70;;;;;;;15.22;87.07;101443.75;5071189;28;20438;-42
2022/10/08 10:52:48;;;;;;;14.07;13.40;;;;;;;15.06;84.11;101449.53;5070841;28;20478;-44
2022/10/08 10:55:23;;;;;;;12.50;11.90;;;;;;;15.16;81.64;101447.25;5066174;28;20827;-43
2022/10/08 10:58:09;;;;;;;12.93;12.40;;;;;;;15.35;79.98;101447.22;5060948;28;20450;-42
2022/10/08 11:00:45;;;;;;;13.03;12.43;;;;;;;15.58;80.79;101449.47;5071122;28;20434;-42
2022/10/08 11:03:21;;;;;;;13.50;12.50;;;;;;;15.72;80.81;101451.06;5070247;28;20470;-43
2022/10/08 11:05:58;;;;;;;11.67;11.07;;;;;;;15.71;77.46;101443.22;5070755;28;20422;-42
2022/10/08 11:08:35;;;;;;;11.20;10.77;;;;;;;15.63;77.66;101452.34;5070536;28;20979;-43
2022/10/08 11:11:17;;;;;;;11.90;11.03;;;;;;;15.77;79.59;101453.13;5070909;28;20438;-43
2022/10/08 11:13:57;;;;;;;11.43;10.63;;;;;;;15.81;79.07;101446.25;5063136;28;20446;-43
2022/10/08 11:16:39;;;;;;;11.23;10.30;;;;;;;15.71;76.98;101446.72;5074570;28;20457;-43
2022/10/08 11:19:17;;;;;;;11.57;10.33;;;;;;;15.76;76.81;101452.28;5074383;28;20487;-44